Time;durP1;ratioP1;P1;durP2;ratioP2;P2;SDS_P1;SDS_P2;PMS_P1;PMS_P2;Temp;Humidity;BMP_temperature;BMP_pressure;BME280_temperature;BME280_humidity;BME280_pressure;Samples;Min_cycle;Max_cycle;Signal;HPM_P1;HPM_P2
2023/05/12 00:01:18;;;;;;;28.20;25.70;;;;;;;;;;5036966;28;20286;-83
2023/05/12 00:03:44;;;;;;;29.67;26.63;;;;;;;;;;5022870;28;20224;-84
2023/05/12 00:06:13;;;;;;;31.67;28.90;;;;;;;;;;5020300;28;20223;-83
2023/05/12 00:08:38;;;;;;;34.50;31.17;;;;;;;;;;5041599;28;20677;-83
2023/05/12 00:11:04;;;;;;;36.33;32.93;;;;;;;;;;5036284;28;20232;-81
2023/05/12 00:13:29;;;;;;;36.93;33.33;;;;;;;;;;5032872;28;20219;-84
2023/05/12 00:15:57;;;;;;;37.67;34.07;;;;;;;;;;5016005;28;20237;-85
2023/05/12 00:18:23;;;;;;;37.77;34.27;;;;;;;;;;5007095;28;20250;-83
2023/05/12 00:20:48;;;;;;;37.23;33.77;;;;;;;;;;5015813;28;20224;-83
2023/05/12 00:23:14;;;;;;;36.80;33.30;;;;;;;;;;5013747;28;20285;-82
2023/05/12 00:25:39;;;;;;;36.90;33.50;;;;;;;;;;4996442;28;20220;-83
2023/05/12 00:28:05;;;;;;;40.37;36.17;;;;;;;;;;5023022;28;20227;-81
2023/05/12 00:30:30;;;;;;;42.13;38.17;;;;;;;;;;5014733;28;20216;-83
2023/05/12 00:32:57;;;;;;;37.03;33.33;;;;;;;;;;5021350;28;20215;-83
2023/05/12 00:35:23;;;;;;;37.53;33.90;;;;;;;;;;5023326;28;20684;-82
2023/05/12 00:37:48;;;;;;;37.50;34.00;;;;;;;;;;5001186;28;20235;-82
2023/05/12 00:40:17;;;;;;;37.37;33.83;;;;;;;;;;5026313;28;20219;-82
2023/05/12 00:42:42;;;;;;;39.73;35.80;;;;;;;;;;5017511;28;20228;-82
2023/05/12 00:45:10;;;;;;;38.27;34.37;;;;;;;;;;5036345;28;20297;-82
2023/05/12 00:47:38;;;;;;;36.40;32.80;;;;;;;;;;4980980;28;20220;-83
2023/05/12 00:50:08;;;;;;;38.83;34.93;;;;;;;;;;5029651;28;20272;-83
2023/05/12 00:52:34;;;;;;;35.27;31.87;;;;;;;;;;5016206;28;20246;-82
2023/05/12 00:55:02;;;;;;;39.00;35.40;;;;;;;;;;4998957;28;20220;-84
2023/05/12 00:57:28;;;;;;;38.50;34.80;;;;;;;;;;5035412;28;20238;-83
2023/05/12 00:59:54;;;;;;;38.07;34.47;;;;;;;;;;5041481;28;20220;-83
2023/05/12 01:02:22;;;;;;;39.50;35.70;;;;;;;;;;5020672;28;20243;-83
2023/05/12 01:04:50;;;;;;;42.13;38.13;;;;;;;;;;5021518;28;20223;-84
2023/05/12 01:07:20;;;;;;;41.23;37.20;;;;;;;;;;5019051;28;20683;-84
2023/05/12 01:09:47;;;;;;;40.27;36.47;;;;;;;;;;5020874;28;20219;-83
2023/05/12 01:12:15;;;;;;;40.47;36.47;;;;;;;;;;4993008;28;20618;-84
2023/05/12 01:14:45;;;;;;;41.97;37.73;;;;;;;;;;5017310;28;20222;-82
2023/05/12 01:17:12;;;;;;;39.13;35.43;;;;;;;;;;5006566;28;20277;-85
2023/05/12 01:19:51;;;;;;;40.10;36.43;;;;;;;;;;5029237;28;20234;-83
2023/05/12 01:22:17;;;;;;;40.53;36.60;;;;;;;;;;5032341;28;20314;-83
2023/05/12 01:25:10;;;;;;;38.97;35.30;;;;;;;;;;5018722;28;20255;-85
2023/05/12 01:27:38;;;;;;;43.40;39.27;;;;;;;;;;5014902;28;20246;-84
2023/05/12 01:30:05;;;;;;;41.63;37.53;;;;;;;;;;5018655;28;20288;-84
2023/05/12 01:32:34;;;;;;;41.40;37.53;;;;;;;;;;4999969;28;20228;-84
2023/05/12 01:35:00;;;;;;;41.17;37.47;;;;;;;;;;5023444;28;20211;-83
2023/05/12 01:37:29;;;;;;;40.10;36.40;;;;;;;;;;5011211;28;20895;-82
2023/05/12 01:39:55;;;;;;;40.50;36.73;;;;;;;;;;5013074;28;20220;-84
2023/05/12 01:42:21;;;;;;;41.40;37.50;;;;;;;;;;5031177;28;20747;-83
2023/05/12 01:44:49;;;;;;;40.60;36.77;;;;;;;;;;5007209;28;20307;-82
2023/05/12 01:47:15;;;;;;;40.63;36.70;;;;;;;;;;5000298;28;20215;-82
2023/05/12 01:49:45;;;;;;;39.60;36.00;;;;;;;;;;5018858;28;20707;-82
2023/05/12 01:52:17;;;;;;;37.73;34.17;;;;;;;;;;5016189;28;20624;-83
2023/05/12 01:54:42;;;;;;;37.93;34.43;;;;;;;;;;5030976;28;20216;-82
2023/05/12 01:57:12;;;;;;;37.07;33.70;;;;;;;;;;5027666;28;20231;-80
2023/05/12 01:59:38;;;;;;;35.37;32.13;;;;;;;;;;5016003;28;20219;-80
2023/05/12 02:02:05;;;;;;;34.20;31.10;;;;;;;;;;5036563;28;20227;-80
2023/05/12 02:04:30;;;;;;;33.60;30.67;;;;;;;;;;5030913;28;20224;-84
2023/05/12 02:06:57;;;;;;;31.83;28.97;;;;;;;;;;5016873;28;20357;-80
2023/05/12 02:09:26;;;;;;;31.50;28.70;;;;;;;;;;5027184;28;20319;-80
2023/05/12 02:11:56;;;;;;;30.40;27.70;;;;;;;;;;5014387;28;20216;-80
2023/05/12 02:14:21;;;;;;;29.30;26.80;;;;;;;;;;5034911;28;20241;-81
2023/05/12 02:16:51;;;;;;;28.83;26.33;;;;;;;;;;5032727;28;20219;-82
2023/05/12 02:19:20;;;;;;;28.17;25.87;;;;;;;;;;5025471;28;20600;-83
2023/05/12 02:21:49;;;;;;;29.77;26.93;;;;;;;;;;5025501;28;20230;-82
2023/05/12 02:24:17;;;;;;;27.97;25.53;;;;;;;;;;4999608;28;20250;-80
2023/05/12 02:26:43;;;;;;;28.00;25.60;;;;;;;;;;5033944;28;20227;-84
2023/05/12 02:29:10;;;;;;;27.47;24.97;;;;;;;;;;4992220;28;20622;-84
2023/05/12 02:31:39;;;;;;;25.87;23.67;;;;;;;;;;5015975;28;20685;-81
2023/05/12 02:34:13;;;;;;;24.53;22.43;;;;;;;;;;5034290;28;20783;-83
2023/05/12 02:36:39;;;;;;;25.57;23.30;;;;;;;;;;4977097;28;20219;-83
2023/05/12 02:39:04;;;;;;;24.10;22.13;;;;;;;;;;5011739;28;20215;-84
2023/05/12 02:41:30;;;;;;;24.17;22.07;;;;;;;;;;5026623;28;20223;-82
2023/05/12 02:43:56;;;;;;;24.10;22.20;;;;;;;;;;5012861;28;20258;-83
2023/05/12 02:46:22;;;;;;;23.40;21.33;;;;;;;;;;4999899;28;20592;-82
2023/05/12 02:48:47;;;;;;;23.40;21.30;;;;;;;;;;5017118;28;20211;-84
2023/05/12 02:51:14;;;;;;;23.23;20.90;;;;;;;;;;4997577;28;20228;-83
2023/05/12 02:53:40;;;;;;;23.13;21.17;;;;;;;;;;5018686;28;20249;-82
2023/05/12 02:56:05;;;;;;;21.93;19.83;;;;;;;;;;5043527;28;20223;-82
2023/05/12 02:58:33;;;;;;;21.97;19.90;;;;;;;;;;4990072;28;20225;-81
2023/05/12 03:00:59;;;;;;;21.83;19.90;;;;;;;;;;5021863;28;20273;-81
2023/05/12 03:03:24;;;;;;;21.97;20.00;;;;;;;;;;5011341;28;20700;-83
2023/05/12 03:05:51;;;;;;;21.60;19.80;;;;;;;;;;5000918;28;20207;-83
2023/05/12 03:08:17;;;;;;;20.17;18.57;;;;;;;;;;5015481;28;20219;-83
2023/05/12 03:10:43;;;;;;;20.17;18.27;;;;;;;;;;5017915;28;20305;-82
2023/05/12 03:13:09;;;;;;;19.73;17.83;;;;;;;;;;5008797;28;20786;-83
2023/05/12 03:15:35;;;;;;;18.70;17.03;;;;;;;;;;5017664;28;20212;-82
2023/05/12 03:18:01;;;;;;;18.63;17.13;;;;;;;;;;4997301;28;20249;-84
2023/05/12 03:20:29;;;;;;;19.17;17.47;;;;;;;;;;5017312;28;20914;-83
2023/05/12 03:22:55;;;;;;;17.90;16.60;;;;;;;;;;5020010;28;20219;-83
2023/05/12 03:25:20;;;;;;;17.87;16.47;;;;;;;;;;5027533;28;20223;-81
2023/05/12 03:27:46;;;;;;;17.83;16.30;;;;;;;;;;5001482;28;20222;-80
2023/05/12 03:30:14;;;;;;;17.60;16.20;;;;;;;;;;5010227;28;20279;-84
2023/05/12 03:32:40;;;;;;;16.77;15.47;;;;;;;;;;5035961;28;20327;-81
2023/05/12 03:35:08;;;;;;;17.20;15.60;;;;;;;;;;4990362;28;20224;-82
2023/05/12 03:37:34;;;;;;;16.47;15.17;;;;;;;;;;4994781;28;20238;-82
2023/05/12 03:40:00;;;;;;;15.43;14.20;;;;;;;;;;5035827;28;20350;-83
2023/05/12 03:42:29;;;;;;;15.93;14.33;;;;;;;;;;5001301;28;20234;-80
2023/05/12 03:44:57;;;;;;;15.80;14.60;;;;;;;;;;5017511;28;20215;-82
2023/05/12 03:47:22;;;;;;;15.37;14.17;;;;;;;;;;5007233;28;25309;-83
2023/05/12 03:49:50;;;;;;;15.40;14.00;;;;;;;;;;5030734;28;20284;-83
2023/05/12 03:52:16;;;;;;;15.27;14.10;;;;;;;;;;5008522;28;20227;-79
2023/05/12 03:54:46;;;;;;;13.70;12.63;;;;;;;;;;5047043;28;20226;-78
2023/05/12 03:57:13;;;;;;;14.83;12.20;;;;;;;;;;5002117;28;20219;-80
2023/05/12 03:59:38;;;;;;;13.80;12.70;;;;;;;;;;5021099;28;20225;-82
2023/05/12 04:02:06;;;;;;;14.10;12.97;;;;;;;;;;5000890;28;20231;-79
2023/05/12 04:04:32;;;;;;;13.53;12.53;;;;;;;;;;5016706;28;20216;-79
2023/05/12 04:06:58;;;;;;;13.93;12.53;;;;;;;;;;5011691;28;20217;-82
2023/05/12 04:09:29;;;;;;;14.00;12.93;;;;;;;;;;5008720;28;20219;-80
2023/05/12 04:11:56;;;;;;;14.43;13.27;;;;;;;;;;5002046;28;20224;-82
2023/05/12 04:14:22;;;;;;;14.27;13.10;;;;;;;;;;5041125;28;20632;-81
2023/05/12 04:16:47;;;;;;;15.20;14.00;;;;;;;;;;5034393;28;20223;-81
2023/05/12 04:19:13;;;;;;;19.40;14.07;;;;;;;;;;5011052;28;21114;-80
2023/05/12 04:21:38;;;;;;;14.67;13.27;;;;;;;;;;5025427;28;20242;-81
2023/05/12 04:24:04;;;;;;;15.57;14.17;;;;;;;;;;5024932;28;20211;-80
2023/05/12 04:26:33;;;;;;;15.27;13.97;;;;;;;;;;5013685;28;20238;-80
2023/05/12 04:29:05;;;;;;;15.83;14.23;;;;;;;;;;5018218;28;20212;-82
2023/05/12 04:31:33;;;;;;;14.90;13.47;;;;;;;;;;5017514;28;20219;-79
2023/05/12 04:34:00;;;;;;;15.60;14.40;;;;;;;;;;5007389;28;20239;-81
2023/05/12 04:36:27;;;;;;;14.23;13.03;;;;;;;;;;5009382;28;20335;-80
2023/05/12 04:38:54;;;;;;;14.37;13.17;;;;;;;;;;4999000;28;20589;-80
2023/05/12 04:41:21;;;;;;;14.00;12.60;;;;;;;;;;5035922;28;20298;-79
2023/05/12 04:43:47;;;;;;;13.80;12.60;;;;;;;;;;5020919;28;20302;-79
2023/05/12 04:46:12;;;;;;;13.27;12.27;;;;;;;;;;4997647;28;20215;-79
2023/05/12 04:48:40;;;;;;;13.70;12.60;;;;;;;;;;5019710;28;20212;-80
2023/05/12 04:51:06;;;;;;;13.07;12.07;;;;;;;;;;5036315;28;20258;-78
2023/05/12 04:53:33;;;;;;;12.97;11.97;;;;;;;;;;5018897;28;20224;-80
2023/05/12 04:55:59;;;;;;;12.60;11.50;;;;;;;;;;4999446;28;20323;-80
2023/05/12 04:58:31;;;;;;;12.50;11.50;;;;;;;;;;5031402;28;20220;-80
2023/05/12 05:00:57;;;;;;;12.70;11.40;;;;;;;;;;5015729;28;20228;-81
2023/05/12 05:03:25;;;;;;;12.97;11.67;;;;;;;;;;5010116;28;20222;-80
2023/05/12 05:05:58;;;;;;;12.80;11.60;;;;;;;;;;5017464;28;20216;-80
2023/05/12 05:08:25;;;;;;;12.30;11.30;;;;;;;;;;5011197;28;20224;-79
2023/05/12 05:10:51;;;;;;;11.90;10.80;;;;;;;;;;4997362;28;20242;-79
2023/05/12 05:13:16;;;;;;;11.67;10.80;;;;;;;;;;5018288;28;20223;-80
2023/05/12 05:15:50;;;;;;;11.87;10.70;;;;;;;;;;5020068;28;20227;-81
2023/05/12 05:18:18;;;;;;;12.17;11.20;;;;;;;;;;5031449;28;20275;-78
2023/05/12 05:20:46;;;;;;;11.90;10.90;;;;;;;;;;4978540;28;20302;-79
2023/05/12 05:23:13;;;;;;;11.33;10.43;;;;;;;;;;5020746;28;20307;-79
2023/05/12 05:25:40;;;;;;;10.97;9.93;;;;;;;;;;5029086;28;20223;-80
2023/05/12 05:28:06;;;;;;;10.73;9.93;;;;;;;;;;5014170;28;20216;-79
2023/05/12 05:30:31;;;;;;;11.47;10.27;;;;;;;;;;5006232;28;20270;-78
2023/05/12 05:32:59;;;;;;;11.50;10.40;;;;;;;;;;5011935;28;20229;-78
2023/05/12 05:35:25;;;;;;;10.57;9.60;;;;;;;;;;5010007;28;20223;-78
2023/05/12 05:37:53;;;;;;;10.77;9.77;;;;;;;;;;5000116;28;20238;-78
2023/05/12 05:40:19;;;;;;;10.20;9.37;;;;;;;;;;5024751;28;20212;-78
2023/05/12 05:42:45;;;;;;;10.37;9.33;;;;;;;;;;5031306;28;20219;-79
2023/05/12 05:45:10;;;;;;;9.90;9.10;;;;;;;;;;4995550;28;20231;-79
2023/05/12 05:47:37;;;;;;;9.93;8.70;;;;;;;;;;5015038;28;20219;-80
2023/05/12 05:50:03;;;;;;;10.47;9.30;;;;;;;;;;4996740;28;20216;-78
2023/05/12 05:52:33;;;;;;;8.90;8.18;;;;;;;;;;5037034;28;20219;-78
2023/05/12 05:55:00;;;;;;;8.90;8.10;;;;;;;;;;5034215;28;21275;-79
2023/05/12 05:57:27;;;;;;;7.82;7.13;;;;;;;;;;5033225;28;20997;-79
2023/05/12 05:59:55;;;;;;;7.60;6.90;;;;;;;;;;5012154;28;20219;-76
2023/05/12 06:02:22;;;;;;;9.17;6.20;;;;;;;;;;4978034;28;20319;-80
2023/05/12 06:04:48;;;;;;;6.90;6.20;;;;;;;;;;4985783;28;20211;-77
2023/05/12 06:07:18;;;;;;;9.27;5.77;;;;;;;;;;5007042;28;20215;-77
2023/05/12 06:09:44;;;;;;;9.50;6.30;;;;;;;;;;5011974;28;20240;-77
2023/05/12 06:12:09;;;;;;;7.10;6.10;;;;;;;;;;4994506;28;20422;-77
2023/05/12 06:14:35;;;;;;;6.95;6.35;;;;;;;;;;5007412;28;20303;-81
2023/05/12 06:17:01;;;;;;;6.88;5.93;;;;;;;;;;4997813;28;21481;-80
2023/05/12 06:19:28;;;;;;;6.30;5.70;;;;;;;;;;4986247;28;20231;-79
2023/05/12 06:21:56;;;;;;;8.00;5.60;;;;;;;;;;5000929;28;20207;-83
2023/05/12 06:24:22;;;;;;;6.20;5.72;;;;;;;;;;5014245;28;20474;-79
2023/05/12 06:26:47;;;;;;;7.15;5.90;;;;;;;;;;4993606;28;20208;-81
2023/05/12 06:29:14;;;;;;;6.30;5.70;;;;;;;;;;5033377;28;20696;-82
2023/05/12 06:31:41;;;;;;;6.38;5.80;;;;;;;;;;4994472;28;20216;-81
2023/05/12 06:34:07;;;;;;;7.38;6.10;;;;;;;;;;5020931;28;20714;-80
2023/05/12 06:36:33;;;;;;;7.00;5.93;;;;;;;;;;5038878;28;20232;-81
2023/05/12 06:38:59;;;;;;;6.82;6.07;;;;;;;;;;5017545;28;20231;-79
2023/05/12 06:41:27;;;;;;;6.40;5.70;;;;;;;;;;5023895;28;20227;-80
2023/05/12 06:43:52;;;;;;;6.82;6.13;;;;;;;;;;4991106;28;20220;-79
2023/05/12 06:46:26;;;;;;;6.03;5.40;;;;;;;;;;5021744;28;20220;-80
2023/05/12 06:48:54;;;;;;;6.38;5.78;;;;;;;;;;4983108;28;20229;-80
2023/05/12 06:51:24;;;;;;;6.05;5.32;;;;;;;;;;5044738;28;20224;-80
2023/05/12 06:53:50;;;;;;;6.10;5.50;;;;;;;;;;5032724;28;20227;-79
2023/05/12 06:56:16;;;;;;;6.32;5.50;;;;;;;;;;4989845;28;20220;-81
2023/05/12 06:58:42;;;;;;;6.47;5.85;;;;;;;;;;5033366;28;20763;-82
2023/05/12 07:01:11;;;;;;;6.20;5.72;;;;;;;;;;5032043;28;20684;-82
2023/05/12 07:03:36;;;;;;;7.43;5.60;;;;;;;;;;5035839;28;20242;-82
2023/05/12 07:06:02;;;;;;;5.93;5.40;;;;;;;;;;5002055;28;20223;-82
2023/05/12 07:08:30;;;;;;;8.43;6.03;;;;;;;;;;4997446;28;20224;-81
2023/05/12 07:10:55;;;;;;;6.03;5.53;;;;;;;;;;5001298;28;20216;-79
2023/05/12 07:13:21;;;;;;;5.93;5.30;;;;;;;;;;5043127;28;20849;-77
2023/05/12 07:15:49;;;;;;;6.45;5.60;;;;;;;;;;4999171;28;20257;-82
2023/05/12 07:18:17;;;;;;;7.55;6.03;;;;;;;;;;5013105;28;20227;-82
2023/05/12 07:20:45;;;;;;;5.80;5.20;;;;;;;;;;5030273;28;20216;-82
2023/05/12 07:23:11;;;;;;;7.50;5.63;;;;;;;;;;5018670;28;20215;-81
2023/05/12 07:25:37;;;;;;;6.57;5.10;;;;;;;;;;5001751;28;20779;-82
2023/05/12 07:28:05;;;;;;;6.53;4.72;;;;;;;;;;5007375;28;20226;-81
2023/05/12 07:30:36;;;;;;;5.43;4.78;;;;;;;;;;5014718;28;20230;-83
2023/05/12 07:33:04;;;;;;;5.90;5.03;;;;;;;;;;4998866;28;20287;-80
2023/05/12 07:35:31;;;;;;;6.22;5.15;;;;;;;;;;5004043;28;20215;-81
2023/05/12 07:37:57;;;;;;;5.70;4.53;;;;;;;;;;5017317;28;20249;-79
2023/05/12 07:40:25;;;;;;;9.30;4.95;;;;;;;;;;5012277;28;20228;-78
2023/05/12 07:42:53;;;;;;;6.47;4.97;;;;;;;;;;5025397;28;20230;-80
2023/05/12 07:45:23;;;;;;;5.82;4.90;;;;;;;;;;5024410;28;20232;-81
2023/05/12 07:47:49;;;;;;;5.90;4.82;;;;;;;;;;4994771;28;20223;-81
2023/05/12 07:50:17;;;;;;;5.65;4.82;;;;;;;;;;5025879;28;20224;-80
2023/05/12 07:52:50;;;;;;;5.78;4.82;;;;;;;;;;5001954;28;20260;-80
2023/05/12 07:55:16;;;;;;;4.95;4.38;;;;;;;;;;4991371;28;20270;-80
2023/05/12 07:57:44;;;;;;;5.13;4.63;;;;;;;;;;5008057;28;20259;-82
2023/05/12 08:00:10;;;;;;;4.85;4.45;;;;;;;;;;5010165;28;20271;-79
2023/05/12 08:02:42;;;;;;;5.00;4.50;;;;;;;;;;5032861;28;20221;-81
2023/05/12 08:05:08;;;;;;;7.82;4.90;;;;;;;;;;5031975;28;20229;-79
2023/05/12 08:07:37;;;;;;;4.82;4.43;;;;;;;;;;5025090;28;20223;-77
2023/05/12 08:10:03;;;;;;;4.60;4.20;;;;;;;;;;5019388;28;20223;-82
2023/05/12 08:12:34;;;;;;;7.18;4.75;;;;;;;;;;5008103;28;20281;-78
2023/05/12 08:15:01;;;;;;;5.65;5.07;;;;;;;;;;5006616;28;21114;-81
2023/05/12 08:17:27;;;;;;;6.13;5.32;;;;;;;;;;5000845;28;20246;-83
2023/05/12 08:19:52;;;;;;;5.25;4.75;;;;;;;;;;5005228;28;20946;-81
2023/05/12 08:22:18;;;;;;;5.65;5.03;;;;;;;;;;5005992;28;20427;-80
2023/05/12 08:24:44;;;;;;;6.82;4.80;;;;;;;;;;5031635;28;20204;-78
2023/05/12 08:27:12;;;;;;;5.20;4.70;;;;;;;;;;5042735;28;20215;-79
2023/05/12 08:29:40;;;;;;;6.60;5.15;;;;;;;;;;5034973;28;20208;-80
2023/05/12 08:32:06;;;;;;;7.18;4.80;;;;;;;;;;5021897;28;20223;-80
2023/05/12 08:34:31;;;;;;;7.03;4.90;;;;;;;;;;5002265;28;20665;-81
2023/05/12 08:36:57;;;;;;;6.32;4.32;;;;;;;;;;5006389;28;20228;-80
2023/05/12 08:39:22;;;;;;;6.57;4.20;;;;;;;;;;5036306;28;20229;-82
2023/05/12 08:41:56;;;;;;;6.35;4.32;;;;;;;;;;4990780;28;20235;-81
2023/05/12 08:44:21;;;;;;;4.90;4.00;;;;;;;;;;5007978;28;20754;-81
2023/05/12 08:46:47;;;;;;;4.60;4.20;;;;;;;;;;5001795;28;20219;-81
2023/05/12 08:49:16;;;;;;;5.35;4.15;;;;;;;;;;5014310;28;20228;-81
2023/05/12 08:51:45;;;;;;;5.65;3.97;;;;;;;;;;5011852;28;20278;-82
2023/05/12 08:54:11;;;;;;;9.20;3.72;;;;;;;;;;4985792;28;20704;-80
2023/05/12 08:56:37;;;;;;;4.25;3.85;;;;;;;;;;5018338;28;20581;-82
2023/05/12 08:59:04;;;;;;;5.20;3.92;;;;;;;;;;4986552;28;20208;-81
2023/05/12 09:01:29;;;;;;;6.22;3.78;;;;;;;;;;5001102;28;20246;-82
2023/05/12 09:03:57;;;;;;;4.28;3.88;;;;;;;;;;5016030;28;20215;-83
2023/05/12 09:06:25;;;;;;;5.60;3.70;;;;;;;;;;5040894;28;20220;-83
2023/05/12 09:08:53;;;;;;;4.82;3.65;;;;;;;;;;5019039;28;20214;-83
2023/05/12 09:11:18;;;;;;;5.13;3.70;;;;;;;;;;5016263;28;20216;-85
2023/05/12 09:14:05;;;;;;;4.47;3.55;;;;;;;;;;5015656;28;20226;-82
2023/05/12 09:16:32;;;;;;;5.82;3.70;;;;;;;;;;5003504;28;20223;-82
2023/05/12 09:19:01;;;;;;;4.72;3.40;;;;;;;;;;4993552;28;20258;-82
2023/05/12 09:21:27;;;;;;;3.70;3.40;;;;;;;;;;5008116;28;20224;-84
2023/05/12 09:23:53;;;;;;;4.18;3.50;;;;;;;;;;5032777;28;20211;-82
2023/05/12 09:26:21;;;;;;;4.00;3.60;;;;;;;;;;5015316;28;20254;-85
2023/05/12 09:28:47;;;;;;;4.35;3.63;;;;;;;;;;5015982;28;20239;-83
2023/05/12 09:31:19;;;;;;;4.15;3.50;;;;;;;;;;5026685;28;20242;-83
2023/05/12 09:33:45;;;;;;;3.42;3.13;;;;;;;;;;4999172;28;20565;-83
2023/05/12 09:36:15;;;;;;;4.95;3.60;;;;;;;;;;5019256;28;20215;-85
2023/05/12 09:38:40;;;;;;;4.60;3.53;;;;;;;;;;5022056;28;20650;-85
2023/05/12 09:41:06;;;;;;;5.78;3.30;;;;;;;;;;5047346;28;20219;-83
2023/05/12 09:43:31;;;;;;;5.30;3.10;;;;;;;;;;5017245;28;20238;-83
2023/05/12 09:46:03;;;;;;;3.53;3.25;;;;;;;;;;5019303;28;20592;-83
2023/05/12 09:48:28;;;;;;;4.82;3.53;;;;;;;;;;5004670;28;20235;-84
2023/05/12 09:50:58;;;;;;;3.60;3.30;;;;;;;;;;5006459;28;20219;-83
2023/05/12 09:53:24;;;;;;;4.45;3.17;;;;;;;;;;5002963;28;20220;-87
2023/05/12 09:55:49;;;;;;;6.80;3.38;;;;;;;;;;5005048;28;20306;-84
2023/05/12 09:58:18;;;;;;;4.10;3.35;;;;;;;;;;5015946;28;20245;-84
2023/05/12 10:00:46;;;;;;;3.65;3.33;;;;;;;;;;5001857;28;20247;-86
2023/05/12 10:03:16;;;;;;;4.18;3.30;;;;;;;;;;5016945;28;20216;-84
2023/05/12 10:05:50;;;;;;;5.72;3.38;;;;;;;;;;5013494;28;20224;-86
2023/05/12 10:08:33;;;;;;;3.30;3.00;;;;;;;;;;5019442;28;20219;-83
2023/05/12 10:10:58;;;;;;;4.20;2.92;;;;;;;;;;5018258;28;20328;-82
2023/05/12 10:13:27;;;;;;;4.90;3.20;;;;;;;;;;4996292;28;20223;-84
2023/05/12 10:15:57;;;;;;;4.75;3.22;;;;;;;;;;5019182;28;20622;-84
2023/05/12 10:18:23;;;;;;;3.30;2.85;;;;;;;;;;4999543;28;21320;-83
2023/05/12 10:20:50;;;;;;;5.43;2.90;;;;;;;;;;5014244;28;20574;-84
2023/05/12 10:23:15;;;;;;;5.88;2.80;;;;;;;;;;5000323;28;20219;-83
2023/05/12 10:25:42;;;;;;;5.07;3.08;;;;;;;;;;5032016;28;20230;-84
2023/05/12 10:28:10;;;;;;;3.20;2.80;;;;;;;;;;5002146;28;20231;-83
2023/05/12 10:30:41;;;;;;;3.33;2.78;;;;;;;;;;5002160;28;20223;-85
2023/05/12 10:33:08;;;;;;;4.65;3.08;;;;;;;;;;5001587;28;20218;-85
2023/05/12 10:35:35;;;;;;;2.88;2.55;;;;;;;;;;5012721;28;20223;-83
2023/05/12 10:38:18;;;;;;;3.85;3.03;;;;;;;;;;5001062;28;20287;-85
2023/05/12 10:40:50;;;;;;;5.15;2.80;;;;;;;;;;5014739;28;20222;-83
2023/05/12 10:43:33;;;;;;;3.13;2.47;;;;;;;;;;5044673;28;20223;-86
2023/05/12 10:46:15;;;;;;;3.30;2.75;;;;;;;;;;5016182;28;20219;-86
2023/05/12 10:49:03;;;;;;;2.70;2.50;;;;;;;;;;5016671;28;20381;-84
2023/05/12 10:51:30;;;;;;;4.45;2.80;;;;;;;;;;5031913;28;20227;-84
2023/05/12 10:54:00;;;;;;;8.23;2.75;;;;;;;;;;5015315;28;20227;-85
2023/05/12 10:56:42;;;;;;;4.78;3.00;;;;;;;;;;5015911;28;20282;-85
2023/05/12 10:59:17;;;;;;;5.75;3.00;;;;;;;;;;5001743;28;20224;-84
2023/05/12 11:01:59;;;;;;;3.75;2.83;;;;;;;;;;5038186;28;20235;-81
2023/05/12 11:04:48;;;;;;;3.50;3.15;;;;;;;;;;5039397;28;20219;-81
2023/05/12 11:07:14;;;;;;;2.97;2.67;;;;;;;;;;5035647;28;20671;-82
2023/05/12 11:09:44;;;;;;;4.15;2.80;;;;;;;;;;5035166;28;20222;-82
2023/05/12 11:12:12;;;;;;;3.75;2.67;;;;;;;;;;5012584;28;20278;-84
2023/05/12 11:14:39;;;;;;;4.03;2.97;;;;;;;;;;5001381;28;20219;-83
2023/05/12 11:17:05;;;;;;;4.78;2.63;;;;;;;;;;5004701;28;20271;-85
2023/05/12 11:19:31;;;;;;;4.47;2.90;;;;;;;;;;5010212;28;20228;-83
2023/05/12 11:22:02;;;;;;;4.57;2.85;;;;;;;;;;5032933;28;20228;-85
2023/05/12 11:24:27;;;;;;;4.95;3.15;;;;;;;;;;4999379;28;20224;-86
2023/05/12 11:26:53;;;;;;;3.55;2.90;;;;;;;;;;4998323;28;20301;-83
2023/05/12 11:29:19;;;;;;;4.35;2.83;;;;;;;;;;5046300;28;20213;-84
2023/05/12 11:31:51;;;;;;;4.03;3.15;;;;;;;;;;5033235;28;20219;-82
2023/05/12 11:34:23;;;;;;;3.45;2.70;;;;;;;;;;5024776;28;20227;-82
2023/05/12 11:36:50;;;;;;;3.15;2.50;;;;;;;;;;5009969;28;20238;-81
2023/05/12 11:39:16;;;;;;;3.97;2.60;;;;;;;;;;5017030;28;20220;-84
2023/05/12 11:41:46;;;;;;;3.55;3.08;;;;;;;;;;5033310;28;20227;-84
2023/05/12 11:44:26;;;;;;;6.03;2.88;;;;;;;;;;5003988;28;20653;-83
2023/05/12 11:47:09;;;;;;;3.85;2.55;;;;;;;;;;5018125;28;20251;-82
2023/05/12 11:49:54;;;;;;;2.60;2.40;;;;;;;;;;5034375;28;20223;-83
2023/05/12 11:52:22;;;;;;;4.07;2.30;;;;;;;;;;5016760;28;20215;-82
2023/05/12 11:54:52;;;;;;;2.70;2.50;;;;;;;;;;4988654;28;20680;-84
2023/05/12 11:57:28;;;;;;;2.63;2.42;;;;;;;;;;5031221;28;20239;-82
2023/05/12 11:59:56;;;;;;;2.60;2.40;;;;;;;;;;5008389;28;20239;-83
2023/05/12 12:02:22;;;;;;;8.15;2.50;;;;;;;;;;5004912;28;20215;-82
2023/05/12 12:04:50;;;;;;;4.82;2.53;;;;;;;;;;5029354;28;20223;-82
2023/05/12 12:07:15;;;;;;;2.55;2.35;;;;;;;;;;5001181;28;20332;-84
2023/05/12 12:09:45;;;;;;;2.70;2.50;;;;;;;;;;5016846;28;20220;-83
2023/05/12 12:12:13;;;;;;;2.70;2.30;;;;;;;;;;5012065;28;20219;-82
2023/05/12 12:14:40;;;;;;;5.13;2.60;;;;;;;;;;5001634;28;20251;-83
2023/05/12 12:17:05;;;;;;;2.75;2.38;;;;;;;;;;5018050;28;21009;-81
2023/05/12 12:19:38;;;;;;;2.75;2.50;;;;;;;;;;5045003;28;20228;-83
2023/05/12 12:22:04;;;;;;;3.38;2.42;;;;;;;;;;5003063;28;20227;-81
2023/05/12 12:24:29;;;;;;;2.72;2.25;;;;;;;;;;5021958;28;20832;-82
2023/05/12 12:26:55;;;;;;;2.88;2.30;;;;;;;;;;5018683;28;20211;-82
2023/05/12 12:29:22;;;;;;;2.67;2.47;;;;;;;;;;5002516;28;20597;-82
2023/05/12 12:31:48;;;;;;;3.72;2.30;;;;;;;;;;5002956;28;20326;-82
2023/05/12 12:34:13;;;;;;;8.32;2.95;;;;;;;;;;5017864;28;20212;-81
2023/05/12 12:36:40;;;;;;;2.70;2.50;;;;;;;;;;5026519;28;20268;-82
2023/05/12 12:39:06;;;;;;;3.45;2.38;;;;;;;;;;5018284;28;20216;-82
2023/05/12 12:41:34;;;;;;;5.75;2.53;;;;;;;;;;5006215;28;20231;-82
2023/05/12 12:44:00;;;;;;;3.85;2.58;;;;;;;;;;5029156;28;20235;-82
2023/05/12 12:46:25;;;;;;;6.60;2.90;;;;;;;;;;5018321;28;20226;-84
2023/05/12 12:48:51;;;;;;;4.25;2.60;;;;;;;;;;5015493;28;20266;-82
2023/05/12 12:51:16;;;;;;;2.97;2.67;;;;;;;;;;5013092;28;20216;-85
2023/05/12 12:53:44;;;;;;;4.60;2.78;;;;;;;;;;5041247;28;20214;-82
2023/05/12 12:56:10;;;;;;;3.45;2.60;;;;;;;;;;5019219;28;20223;-80
2023/05/12 12:58:36;;;;;;;2.78;2.40;;;;;;;;;;5031532;28;20273;-81
2023/05/12 13:01:04;;;;;;;4.40;2.50;;;;;;;;;;5017744;28;20242;-83
2023/05/12 13:03:29;;;;;;;3.85;2.60;;;;;;;;;;5014563;28;20708;-83
2023/05/12 13:05:55;;;;;;;4.53;2.75;;;;;;;;;;5031087;28;20218;-83
2023/05/12 13:08:21;;;;;;;4.03;2.80;;;;;;;;;;5016811;28;20215;-83
2023/05/12 13:10:46;;;;;;;2.88;2.20;;;;;;;;;;5029001;28;20220;-83
2023/05/12 13:13:14;;;;;;;5.03;2.80;;;;;;;;;;4995472;28;20944;-84
2023/05/12 13:15:42;;;;;;;4.53;2.45;;;;;;;;;;5015332;28;20230;-82
2023/05/12 13:18:10;;;;;;;3.50;2.55;;;;;;;;;;5014759;28;20726;-82
2023/05/12 13:20:35;;;;;;;3.47;2.30;;;;;;;;;;5013367;28;20230;-84
2023/05/12 13:23:02;;;;;;;4.60;2.40;;;;;;;;;;5015391;28;20224;-83
2023/05/12 13:25:27;;;;;;;3.75;2.30;;;;;;;;;;4997904;28;20839;-82
2023/05/12 13:27:53;;;;;;;3.80;2.67;;;;;;;;;;5014183;28;20227;-82
2023/05/12 13:30:19;;;;;;;4.10;2.58;;;;;;;;;;4998469;28;20599;-83
2023/05/12 13:32:45;;;;;;;3.20;2.40;;;;;;;;;;5032868;28;20215;-85
2023/05/12 13:35:11;;;;;;;4.15;2.58;;;;;;;;;;5031745;28;20223;-81
2023/05/12 13:37:38;;;;;;;5.65;2.70;;;;;;;;;;5000638;28;20284;-81
2023/05/12 13:40:04;;;;;;;2.88;2.65;;;;;;;;;;5009059;28;20692;-82
2023/05/12 13:42:31;;;;;;;6.13;3.17;;;;;;;;;;5016758;28;20254;-82
2023/05/12 13:44:56;;;;;;;7.35;3.30;;;;;;;;;;4998776;28;20688;-81
2023/05/12 13:47:22;;;;;;;3.65;2.40;;;;;;;;;;5017002;28;20235;-81
2023/05/12 13:49:47;;;;;;;4.40;2.83;;;;;;;;;;4980304;28;20223;-83
2023/05/12 13:52:14;;;;;;;3.72;2.80;;;;;;;;;;5016631;28;20285;-83
2023/05/12 13:54:39;;;;;;;3.28;2.90;;;;;;;;;;5006516;28;20229;-83
2023/05/12 13:57:07;;;;;;;2.75;2.50;;;;;;;;;;5026572;28;20223;-82
2023/05/12 13:59:32;;;;;;;3.25;2.45;;;;;;;;;;5026090;28;20251;-82
2023/05/12 14:02:00;;;;;;;5.07;2.63;;;;;;;;;;5017417;28;20228;-81
2023/05/12 14:04:25;;;;;;;2.97;2.60;;;;;;;;;;4999288;28;20763;-82
2023/05/12 14:06:54;;;;;;;5.05;3.70;;;;;;;;;;4984668;28;20310;-83
2023/05/12 14:09:19;;;;;;;4.03;3.42;;;;;;;;;;5018152;28;20297;-83
2023/05/12 14:11:45;;;;;;;4.22;3.03;;;;;;;;;;5016299;28;20232;-81
2023/05/12 14:14:12;;;;;;;5.32;4.32;;;;;;;;;;5026370;28;20636;-82
2023/05/12 14:16:38;;;;;;;8.75;6.25;;;;;;;;;;5008785;28;20232;-82
2023/05/12 14:19:06;;;;;;;10.70;6.35;;;;;;;;;;4989646;28;20258;-82
2023/05/12 14:21:31;;;;;;;7.18;3.90;;;;;;;;;;5012244;28;20278;-82
2023/05/12 14:23:57;;;;;;;3.40;2.58;;;;;;;;;;5028152;28;20211;-80
2023/05/12 14:26:24;;;;;;;4.55;2.78;;;;;;;;;;5031783;28;20219;-81
2023/05/12 14:28:49;;;;;;;4.50;2.58;;;;;;;;;;5026062;28;20970;-82
2023/05/12 14:31:16;;;;;;;9.13;4.20;;;;;;;;;;5014772;28;20227;-82
2023/05/12 14:33:41;;;;;;;4.30;2.60;;;;;;;;;;5011653;28;20252;-81
2023/05/12 14:36:08;;;;;;;9.93;3.20;;;;;;;;;;5008733;28;20234;-82